Terminal Aerodrome Forecast
Issued by NWS

Home | Current Version | Previous Version | Text Only | Print | Product List | Glossary On
Versions: 1 2 3 4 5 6 7 8 9 10 11 12 13 14 15 16 17 18 19 20 21 22 23 24 25
473
FTUS45 KCYS 061134 AAA
TAFAIA
TAF AMD
KAIA 061134Z 0612/0712 14010KT P6SM BKN250
     FM061900 13013KT P6SM SCT060 BKN200
     FM070000 12010KT P6SM VCSH BKN150
     FM070600 05012KT P6SM VCSH SCT050 BKN250
     FM071000 06014KT P6SM BKN040=

USA.gov is the U.S. government's official web portal to all federal, state and local government web resources and services.